createdAt,value
2019-04-11T07:37:16.140Z,7.20
2019-04-11T07:39:47.236Z,7.80
2019-04-11T07:42:23.960Z,7.70
2019-04-11T07:45:04.166Z,8.00
2019-04-11T07:47:40.158Z,7.90
2019-04-11T07:50:10.066Z,7.90
2019-04-11T07:52:56.103Z,7.50
2019-04-11T07:55:25.818Z,8.20
2019-04-11T07:57:58.989Z,8.00
2019-04-11T08:00:44.159Z,7.90
2019-04-11T08:03:14.354Z,8.70
2019-04-11T08:06:00.929Z,9.10
2019-04-11T08:08:32.298Z,9.60
2019-04-11T08:11:05.099Z,9.10
2019-04-11T08:13:47.175Z,9.40
2019-04-11T08:16:23.122Z,10.10
2019-04-11T08:19:03.480Z,10.40
2019-04-11T08:21:50.454Z,11.30
2019-04-11T08:24:28.349Z,11.80
2019-04-11T08:27:13.776Z,12.70
2019-04-11T08:29:42.314Z,13.00
2019-04-11T08:32:29.628Z,13.50
2019-04-11T08:35:15.926Z,12.90
2019-04-11T08:38:02.809Z,13.20
2019-04-11T08:40:49.404Z,13.10
2019-04-11T08:43:28.893Z,12.70
2019-04-11T08:45:59.219Z,13.10
2019-04-11T08:48:29.302Z,13.30
2019-04-11T08:50:59.572Z,13.80
2019-04-11T08:53:44.975Z,14.30
2019-04-11T08:56:21.592Z,14.90
2019-04-11T08:59:34.108Z,14.60
2019-04-11T09:02:02.805Z,14.20
2019-04-11T09:04:46.139Z,14.50
2019-04-11T09:07:17.057Z,14.70
2019-04-11T09:10:04.103Z,15.40
2019-04-11T09:12:32.651Z,14.40
2019-04-11T09:15:02.834Z,14.30
2019-04-11T09:17:36.670Z,14.50
2019-04-11T09:20:23.466Z,14.90
2019-04-11T09:22:53.569Z,14.10
2019-04-11T09:25:27.248Z,14.40
2019-04-11T09:28:06.990Z,14.00
2019-04-11T09:30:39.308Z,15.00
2019-04-11T09:33:22.687Z,15.10
2019-04-11T09:35:52.801Z,15.20
2019-04-11T09:38:22.886Z,16.10
2019-04-11T09:40:54.157Z,15.30
2019-04-11T09:43:33.923Z,15.90
2019-04-11T09:46:21.954Z,15.90
2019-04-11T09:49:09.040Z,16.30
2019-04-11T09:51:42.313Z,15.80
2019-04-11T09:54:15.589Z,15.80
2019-04-11T09:56:48.769Z,15.90
2019-04-11T09:59:18.947Z,15.30
2019-04-11T10:01:51.799Z,15.30
2019-04-11T10:04:23.120Z,15.70
2019-04-11T10:07:11.311Z,16.00
2019-04-11T10:09:54.194Z,15.80
2019-04-11T10:12:40.631Z,16.20
2019-04-11T10:15:09.446Z,15.80
2019-04-11T10:17:56.943Z,15.10
2019-04-11T10:20:26.676Z,15.70
2019-04-11T10:23:06.236Z,15.90
2019-04-11T10:25:37.197Z,16.10
2019-04-11T10:28:07.519Z,15.70
2019-04-11T10:30:57.847Z,16.60
2019-04-11T10:33:39.941Z,17.40
2019-04-11T10:36:15.779Z,16.80
2019-04-11T10:38:44.739Z,16.10
2019-04-11T10:41:18.675Z,15.60
2019-04-11T10:43:47.576Z,15.00
2019-04-11T10:46:20.772Z,16.00
2019-04-11T10:49:07.510Z,16.90
2019-04-11T10:51:38.190Z,17.10
2019-04-11T10:54:08.546Z,16.60
2019-04-11T10:56:39.212Z,16.70
2019-04-11T10:59:09.083Z,16.50
2019-04-11T11:01:54.465Z,17.20
2019-04-11T11:04:25.566Z,17.50
2019-04-11T11:06:55.940Z,16.80
2019-04-11T11:09:28.863Z,17.90
2019-04-11T11:12:14.805Z,17.90
2019-04-11T11:15:01.007Z,17.40
2019-04-11T11:18:05.576Z,17.20
2019-04-11T11:20:29.934Z,15.80
2019-04-11T11:22:55.966Z,16.30
2019-04-11T11:25:35.172Z,17.50
2019-04-11T11:28:03.747Z,17.50
2019-04-11T11:30:37.663Z,17.90
2019-04-11T11:33:08.146Z,18.20
2019-04-11T11:35:50.082Z,18.00
2019-04-11T11:38:30.452Z,17.90
2019-04-11T11:41:03.895Z,17.80
2019-04-11T11:43:34.952Z,17.90
2019-04-11T11:46:05.184Z,18.30
2019-04-11T11:48:39.560Z,17.30
2019-04-11T11:51:28.252Z,15.50
2019-04-11T11:53:59.210Z,16.10
2019-04-11T11:56:27.838Z,17.40
2019-04-11T11:59:09.656Z,16.50
2019-04-11T12:01:42.252Z,17.30
2019-04-11T12:04:27.789Z,17.20
2019-04-11T12:07:02.081Z,17.20
2019-04-11T12:09:46.733Z,16.60
2019-04-11T12:12:19.826Z,17.70
2019-04-11T12:14:55.819Z,18.10
2019-04-11T12:17:26.903Z,17.50
2019-04-11T12:20:09.688Z,17.90
2019-04-11T12:22:34.839Z,17.80
2019-04-11T12:25:04.990Z,17.70
2019-04-11T12:27:54.170Z,18.00
2019-04-11T12:30:30.771Z,17.10
2019-04-11T12:33:17.289Z,16.80
2019-04-11T12:35:53.158Z,16.00
2019-04-11T12:38:26.329Z,15.00
2019-04-11T12:41:14.641Z,14.40
2019-04-11T12:43:53.748Z,13.80
2019-04-11T12:46:40.350Z,12.70
2019-04-11T12:49:15.996Z,11.80
2019-04-11T12:52:02.019Z,11.40
2019-04-11T12:54:32.187Z,10.70
2019-04-11T12:57:02.227Z,10.30
2019-04-11T12:59:30.832Z,10.70
2019-04-11T13:02:15.950Z,11.70
2019-04-11T13:04:45.247Z,12.20
2019-04-11T13:07:21.151Z,12.60
2019-04-11T13:09:54.393Z,11.60
2019-04-11T13:12:36.397Z,11.00
2019-04-11T13:15:13.821Z,11.10
2019-04-11T13:17:46.767Z,10.80
2019-04-11T13:20:29.149Z,10.40
2019-04-11T13:23:02.091Z,9.60
2019-04-11T13:25:48.566Z,9.80
2019-04-11T13:28:17.555Z,9.50
2019-04-11T13:30:47.708Z,9.40
2019-04-11T13:33:17.862Z,9.60
2019-04-11T13:35:51.052Z,9.00
2019-04-11T13:38:23.697Z,8.40
2019-04-11T13:40:56.562Z,7.80
2019-04-11T13:43:29.433Z,7.50
2019-04-11T13:46:02.256Z,7.20
2019-04-11T13:48:32.359Z,6.40
2019-04-11T13:51:07.493Z,6.10
2019-04-11T13:53:53.231Z,6.20
2019-04-11T13:56:23.316Z,6.30
2019-04-11T13:59:09.540Z,6.50
2019-04-11T14:01:39.631Z,6.30
2019-04-11T14:04:12.348Z,6.20
2019-04-11T14:06:40.920Z,5.60
2019-04-11T14:09:17.146Z,5.30
2019-04-11T14:11:46.803Z,5.20
2019-04-11T14:14:16.816Z,4.90
2019-04-11T14:17:02.220Z,4.80
2019-04-11T14:19:41.564Z,4.80
2019-04-11T14:22:13.752Z,4.90
2019-04-11T14:24:58.901Z,5.10
2019-04-11T14:27:28.772Z,5.00
2019-04-11T14:29:58.973Z,4.60
2019-04-11T14:32:29.070Z,4.40
2019-04-11T14:35:15.548Z,4.30
2019-04-11T14:37:45.576Z,4.30
2019-04-11T14:40:30.440Z,4.50
2019-04-11T14:43:09.657Z,4.30
2019-04-11T14:45:45.941Z,4.20
2019-04-11T14:48:31.320Z,4.40
2019-04-11T14:51:01.798Z,4.30
2019-04-11T14:53:50.674Z,4.10
2019-04-11T14:56:36.744Z,4.00
2019-04-11T14:59:06.920Z,4.10
2019-04-11T15:01:35.366Z,4.50
2019-04-11T15:04:21.513Z,4.70
2019-04-11T15:06:51.603Z,4.70
2019-04-11T15:09:24.687Z,4.80
2019-04-11T15:11:54.783Z,4.90
2019-04-11T15:14:24.954Z,5.40
2019-04-11T15:16:57.959Z,5.40
2019-04-11T15:19:27.039Z,5.70
2019-04-11T15:22:13.268Z,6.40
2019-04-11T15:24:43.414Z,6.20
2019-04-11T15:27:28.834Z,6.40
2019-04-11T15:29:58.848Z,6.00
2019-04-11T15:32:31.928Z,6.10
2019-04-11T15:35:00.760Z,6.00
2019-04-11T15:37:47.269Z,5.70
2019-04-11T15:40:16.641Z,5.90
2019-04-11T15:43:03.069Z,5.50
2019-04-11T15:45:36.146Z,5.30
2019-04-11T15:48:23.443Z,5.30
2019-04-11T15:51:07.129Z,5.10
2019-04-11T15:53:46.477Z,5.00
2019-04-11T15:56:33.037Z,4.90
2019-04-11T15:59:12.869Z,5.20
2019-04-11T16:01:49.364Z,5.30
2019-04-11T16:04:31.438Z,5.10
2019-04-11T16:07:08.157Z,4.90
2019-04-11T16:09:37.231Z,4.70
2019-04-11T16:12:19.356Z,4.00
2019-04-11T16:14:58.430Z,3.60
2019-04-11T16:17:46.059Z,3.30
2019-04-11T16:20:17.770Z,3.00
2019-04-11T16:23:02.526Z,2.80
2019-04-11T16:25:31.103Z,2.50
2019-04-11T16:28:07.917Z,2.60
2019-04-11T16:30:39.781Z,2.60
2019-04-11T16:33:10.034Z,2.30
2019-04-11T16:35:40.069Z,2.10
2019-04-11T16:38:10.625Z,1.90
2019-04-11T16:40:40.755Z,1.90
2019-04-11T16:43:10.669Z,1.80
2019-04-11T16:45:57.035Z,1.70
2019-04-11T16:48:26.145Z,1.70
2019-04-11T16:50:54.662Z,1.50
2019-04-11T16:53:23.037Z,1.30
2019-04-11T16:55:53.794Z,1.20
2019-04-11T16:58:21.651Z,1.10
2019-04-11T17:00:52.733Z,1.10
2019-04-11T17:03:20.216Z,1.00
2019-04-11T17:05:50.238Z,0.90
2019-04-11T17:08:20.372Z,0.80
2019-04-11T17:11:02.478Z,0.80
2019-04-11T17:13:32.499Z,0.70
2019-04-11T17:16:02.429Z,0.70
2019-04-11T17:18:34.000Z,0.60
2019-04-11T17:21:00.897Z,0.60
2019-04-11T17:23:29.278Z,0.50
2019-04-11T17:25:57.668Z,0.40
2019-04-11T17:28:26.188Z,0.40
2019-04-11T17:30:55.718Z,0.40
2019-04-11T17:33:27.808Z,0.30
2019-04-11T17:35:54.265Z,0.20
2019-04-11T17:38:22.725Z,0.20
2019-04-11T17:40:51.150Z,0.10
2019-04-11T17:43:19.600Z,0.10
2019-04-11T17:45:48.125Z,0.00
2019-04-11T17:48:16.513Z,-0.10
2019-04-11T17:50:44.981Z,-0.10
2019-04-11T17:53:13.535Z,-0.20
2019-04-11T17:55:41.985Z,-0.20
2019-04-11T17:58:10.380Z,-0.30
2019-04-11T18:00:40.485Z,-0.30
2019-04-11T18:03:11.745Z,-0.30
2019-04-11T18:05:39.212Z,-0.40
2019-04-11T18:08:07.589Z,-0.40
2019-04-11T18:10:36.040Z,-0.40
2019-04-11T18:13:04.417Z,-0.40
2019-04-11T18:15:32.952Z,-0.30
2019-04-11T18:18:03.086Z,-0.40
2019-04-11T18:20:31.499Z,-0.50
2019-04-11T18:23:00.101Z,-0.40
2019-04-11T18:25:28.581Z,-0.30
2019-04-11T18:27:57.092Z,-0.40
2019-04-11T18:30:25.571Z,-0.30
2019-04-11T18:32:54.075Z,-0.30
2019-04-11T18:35:22.658Z,-0.30
2019-04-11T18:37:51.206Z,-0.40
2019-04-11T18:40:19.965Z,-0.60
2019-04-11T18:42:48.569Z,-0.70
2019-04-11T18:45:16.944Z,-0.60
2019-04-11T18:47:45.468Z,-0.60
2019-04-11T18:50:14.082Z,-0.80
2019-04-11T18:52:42.540Z,-1.00
2019-04-11T18:55:11.010Z,-1.10
2019-04-11T18:57:39.467Z,-1.30
2019-04-11T19:00:09.856Z,-1.40
2019-04-11T19:02:40.237Z,-1.50
2019-04-11T19:05:08.504Z,-1.50
2019-04-11T19:07:36.967Z,-1.50
2019-04-11T19:10:06.895Z,-1.60
2019-04-11T19:12:35.336Z,-1.70
2019-04-11T19:15:05.335Z,-1.70
2019-04-11T19:17:33.852Z,-1.80
2019-04-11T19:20:02.431Z,-1.80
2019-04-11T19:22:37.692Z,-1.80
2019-04-11T19:25:00.884Z,-1.90
2019-04-11T19:27:29.425Z,-1.90
2019-04-11T19:29:57.881Z,-1.80
2019-04-11T19:32:26.257Z,-1.80
2019-04-11T19:34:54.729Z,-1.90
2019-04-11T19:37:23.253Z,-1.90
2019-04-11T19:39:51.784Z,-1.90
2019-04-11T19:42:20.303Z,-1.90
2019-04-11T19:44:49.652Z,-1.90
2019-04-11T19:47:21.382Z,-1.90
2019-04-11T19:49:48.968Z,-1.90
2019-04-11T19:52:17.431Z,-2.00
2019-04-11T19:54:45.881Z,-2.00
2019-04-11T19:57:14.353Z,-2.10
2019-04-11T19:59:42.881Z,-2.20
2019-04-11T20:02:11.408Z,-2.20
2019-04-11T20:04:39.889Z,-2.30
2019-04-11T20:07:08.268Z,-2.30
2019-04-11T20:09:36.861Z,-2.40
2019-04-11T20:12:05.406Z,-2.40
2019-04-11T20:14:34.911Z,-2.40
2019-04-11T20:17:03.524Z,-2.40
2019-04-11T20:19:31.896Z,-2.50
2019-04-11T20:22:00.472Z,-2.50
2019-04-11T20:24:29.000Z,-2.60
2019-04-11T20:26:57.393Z,-2.60
2019-04-11T20:29:25.928Z,-2.40
2019-04-11T20:31:54.453Z,-2.40
2019-04-11T20:34:27.827Z,-2.40
2019-04-11T20:36:53.289Z,-2.50
2019-04-11T20:39:21.803Z,-2.60
2019-04-11T20:41:53.187Z,-2.60
2019-04-11T20:44:20.429Z,-2.40
2019-04-11T20:46:49.033Z,-2.40
2019-04-11T20:49:17.616Z,-2.40
2019-04-11T20:51:46.082Z,-2.50
2019-04-11T20:54:14.548Z,-2.50
2019-04-11T20:56:43.065Z,-2.50
2019-04-11T20:59:11.593Z,-2.60
2019-04-11T21:01:40.121Z,-2.80
2019-04-11T21:04:08.523Z,-2.70
2019-04-11T21:06:37.113Z,-2.80
2019-04-11T21:09:08.221Z,-2.90
2019-04-11T21:11:39.496Z,-2.90
2019-04-11T21:14:07.942Z,-3.00
2019-04-11T21:16:36.460Z,-3.00
2019-04-11T21:19:04.934Z,-2.90
2019-04-11T21:21:33.445Z,-3.00
2019-04-11T21:24:01.972Z,-3.00
2019-04-11T21:26:30.718Z,-3.10
2019-04-11T21:28:59.489Z,-3.20
2019-04-11T21:31:30.877Z,-3.30
2019-04-11T21:33:58.279Z,-3.40
2019-04-11T21:36:26.979Z,-3.30
2019-04-11T21:38:55.621Z,-3.40
2019-04-11T21:41:24.015Z,-3.40
2019-04-11T21:43:52.476Z,-3.50
2019-04-11T21:46:21.260Z,-3.30
2019-04-11T21:48:49.718Z,-3.40
2019-04-11T21:51:18.278Z,-3.40
2019-04-11T21:53:46.733Z,-3.40
2019-04-11T21:56:15.982Z,-3.50
2019-04-11T21:58:45.296Z,-3.60
2019-04-11T22:01:13.821Z,-3.50
2019-04-11T22:03:42.420Z,-3.70
2019-04-11T22:06:13.797Z,-3.50
2019-04-11T22:08:42.335Z,-3.50
2019-04-11T22:11:10.838Z,-3.60
2019-04-11T22:13:40.467Z,-3.70
2019-04-11T22:16:13.375Z,-3.80
2019-04-11T22:18:39.527Z,-3.80
2019-04-11T22:21:08.158Z,-3.70
2019-04-11T22:23:48.136Z,-3.80
2019-04-11T22:26:06.641Z,-3.70
2019-04-11T22:28:35.183Z,-3.70
2019-04-11T22:31:03.648Z,-3.70
2019-04-11T22:33:33.752Z,-3.70
2019-04-11T22:36:02.203Z,-3.70
2019-04-11T22:38:31.510Z,-3.80
2019-04-11T22:41:01.980Z,-3.90
2019-04-11T22:43:30.258Z,-4.00
2019-04-11T22:45:58.711Z,-4.10
2019-04-11T22:48:27.245Z,-4.20
2019-04-11T22:50:55.692Z,-4.20
2019-04-11T22:53:24.306Z,-4.20
2019-04-11T22:55:52.771Z,-4.20
2019-04-11T22:58:21.142Z,-4.10
2019-04-11T23:00:51.633Z,-4.20
2019-04-11T23:03:21.405Z,-4.20
2019-04-11T23:05:49.788Z,-4.20
2019-04-11T23:08:19.255Z,-4.30
2019-04-11T23:10:48.295Z,-4.40
2019-04-11T23:13:16.761Z,-4.40
2019-04-11T23:15:45.209Z,-4.30
2019-04-11T23:18:14.607Z,-4.30
2019-04-11T23:20:44.239Z,-4.30
2019-04-11T23:23:13.570Z,-4.40
2019-04-11T23:25:42.535Z,-4.50
2019-04-11T23:28:10.990Z,-4.60
2019-04-11T23:30:39.587Z,-4.60
2019-04-11T23:33:08.114Z,-4.60
2019-04-11T23:35:36.559Z,-4.70
2019-04-11T23:38:05.193Z,-4.60
2019-04-11T23:40:33.579Z,-4.60
2019-04-11T23:43:02.090Z,-4.60
2019-04-11T23:45:30.621Z,-4.70
2019-04-11T23:47:59.141Z,-4.60
2019-04-11T23:50:27.643Z,-4.50
2019-04-11T23:52:57.851Z,-4.60
2019-04-11T23:55:29.927Z,-4.50
2019-04-11T23:57:56.356Z,-4.50
